createdAt,value
2019-02-02T00:01:39.818Z,18.53
2019-02-02T00:04:06.440Z,19.90
2019-02-02T00:06:33.013Z,21.00
2019-02-02T00:08:59.603Z,23.60
2019-02-02T00:11:26.249Z,19.77
2019-02-02T00:13:52.785Z,17.90
2019-02-02T00:16:19.382Z,21.23
2019-02-02T00:18:45.910Z,19.30
2019-02-02T00:21:12.404Z,19.97
2019-02-02T00:23:38.948Z,19.43
2019-02-02T00:26:05.485Z,22.03
2019-02-02T00:28:32.036Z,18.53
2019-02-02T00:30:58.659Z,20.70
2019-02-02T00:33:25.289Z,18.53
2019-02-02T00:35:51.876Z,18.70
2019-02-02T00:38:18.328Z,23.53
2019-02-02T00:40:44.967Z,22.20
2019-02-02T00:43:12.124Z,27.50
2019-02-02T00:45:38.674Z,34.73
2019-02-02T00:48:05.391Z,47.40
2019-02-02T00:50:31.792Z,77.27
2019-02-02T00:53:01.021Z,73.07
2019-02-02T00:55:26.938Z,56.97
2019-02-02T00:57:54.107Z,42.93
2019-02-02T01:00:25.884Z,33.33
2019-02-02T01:02:53.893Z,26.10
2019-02-02T01:05:21.885Z,28.83
2019-02-02T01:07:49.379Z,24.70
2019-02-02T01:10:33.759Z,23.93
2019-02-02T01:13:02.185Z,21.10
2019-02-02T01:15:29.179Z,20.73
2019-02-02T01:17:55.765Z,21.23
2019-02-02T01:20:22.482Z,21.30
2019-02-02T01:22:49.296Z,19.60
2019-02-02T01:25:16.079Z,21.53
2019-02-02T01:27:43.216Z,22.57
2019-02-02T01:30:15.021Z,23.13
2019-02-02T01:32:41.750Z,25.93
2019-02-02T01:35:12.183Z,27.17
2019-02-02T01:37:38.867Z,29.33
2019-02-02T01:40:19.036Z,23.90
2019-02-02T01:42:45.664Z,25.67
2019-02-02T01:45:25.430Z,31.07
2019-02-02T01:47:52.469Z,26.07
2019-02-02T01:50:22.206Z,24.97
2019-02-02T01:52:48.818Z,27.20
2019-02-02T01:55:16.619Z,28.87
2019-02-02T01:57:43.378Z,28.77
2019-02-02T02:00:30.636Z,25.83
2019-02-02T02:02:57.207Z,23.57
2019-02-02T02:05:23.935Z,28.30
2019-02-02T02:07:50.550Z,29.30
2019-02-02T02:10:19.163Z,23.93
2019-02-02T02:12:46.079Z,30.63
2019-02-02T02:15:15.823Z,24.87
2019-02-02T02:17:43.465Z,26.97
2019-02-02T02:20:13.662Z,26.07
2019-02-02T02:22:41.484Z,21.30
2019-02-02T02:25:11.830Z,23.70
2019-02-02T02:27:38.375Z,22.17
2019-02-02T02:30:10.005Z,22.40
2019-02-02T02:32:36.572Z,22.83
2019-02-02T02:35:05.290Z,24.73
2019-02-02T02:37:31.894Z,26.20
2019-02-02T02:39:58.376Z,23.43
2019-02-02T02:42:24.786Z,23.80
2019-02-02T02:44:51.189Z,22.93
2019-02-02T02:47:29.409Z,22.37
2019-02-02T02:49:55.816Z,22.87
2019-02-02T02:52:22.349Z,26.17
2019-02-02T02:54:48.749Z,26.57
2019-02-02T02:57:15.309Z,27.33
2019-02-02T02:59:41.819Z,25.60
2019-02-02T03:02:08.229Z,25.37
2019-02-02T03:04:34.859Z,27.47
2019-02-02T03:07:01.257Z,27.40
2019-02-02T03:09:27.564Z,27.13
2019-02-02T03:11:54.011Z,26.33
2019-02-02T03:14:20.350Z,25.43
2019-02-02T03:16:47.049Z,24.63
2019-02-02T03:19:13.471Z,26.03
2019-02-02T03:21:39.970Z,25.87
2019-02-02T03:24:06.474Z,28.50
2019-02-02T03:26:33.029Z,28.03
2019-02-02T03:28:59.471Z,28.67
2019-02-02T03:31:25.858Z,25.00
2019-02-02T03:33:52.415Z,24.87
2019-02-02T03:36:18.815Z,24.53
2019-02-02T03:38:45.232Z,31.30
2019-02-02T03:41:11.746Z,30.70
2019-02-02T03:43:38.144Z,26.53
2019-02-02T03:46:04.805Z,24.70
2019-02-02T03:48:31.374Z,22.83
2019-02-02T03:50:57.900Z,34.97
2019-02-02T03:53:24.210Z,70.27
2019-02-02T03:55:50.740Z,35.70
2019-02-02T03:58:17.083Z,27.23
2019-02-02T04:00:43.697Z,24.83
2019-02-02T04:03:10.788Z,27.20
2019-02-02T04:05:37.289Z,24.47
2019-02-02T04:08:03.910Z,23.77
2019-02-02T04:10:30.422Z,25.07
2019-02-02T04:12:56.807Z,28.07
2019-02-02T04:15:23.526Z,29.47
2019-02-02T04:17:50.264Z,23.93
2019-02-02T04:20:21.954Z,27.90
2019-02-02T04:22:49.065Z,30.50
2019-02-02T04:25:16.962Z,28.63
2019-02-02T04:27:43.568Z,27.20
2019-02-02T04:30:22.878Z,26.13
2019-02-02T04:32:49.424Z,27.20
2019-02-02T04:35:16.125Z,26.27
2019-02-02T04:37:43.121Z,25.90
2019-02-02T04:40:15.000Z,28.03
2019-02-02T04:42:41.679Z,31.60
2019-02-02T04:45:14.150Z,26.97
2019-02-02T04:47:40.799Z,34.87
2019-02-02T04:50:10.971Z,31.37
2019-02-02T04:52:37.795Z,28.70
2019-02-02T04:55:06.209Z,26.23
2019-02-02T04:57:32.735Z,28.63
2019-02-02T04:59:59.128Z,30.47
2019-02-02T05:02:25.435Z,29.97
2019-02-02T05:04:51.843Z,27.73
2019-02-02T05:07:18.133Z,29.73
2019-02-02T05:09:44.561Z,29.57
2019-02-02T05:12:11.020Z,30.43
2019-02-02T05:14:37.565Z,28.20
2019-02-02T05:17:04.045Z,27.13
2019-02-02T05:19:30.463Z,27.27
2019-02-02T05:21:56.844Z,28.10
2019-02-02T05:24:23.274Z,28.20
2019-02-02T05:26:49.650Z,28.83
2019-02-02T05:29:16.173Z,27.90
2019-02-02T05:31:42.565Z,28.33
2019-02-02T05:34:09.100Z,30.33
2019-02-02T05:36:35.707Z,29.67
2019-02-02T05:39:06.026Z,32.80
2019-02-02T05:41:32.304Z,28.63
2019-02-02T05:43:58.705Z,26.17
2019-02-02T05:46:25.219Z,27.23
2019-02-02T05:48:51.500Z,25.17
2019-02-02T05:51:17.806Z,25.13
2019-02-02T05:53:44.192Z,25.47
2019-02-02T05:56:10.578Z,28.83
2019-02-02T05:58:37.115Z,27.07
2019-02-02T06:01:04.119Z,32.63
2019-02-02T06:03:30.674Z,26.50
2019-02-02T06:05:57.211Z,26.10
2019-02-02T06:08:23.604Z,27.97
2019-02-02T06:10:50.051Z,26.77
2019-02-02T06:13:16.517Z,26.00
2019-02-02T06:15:43.067Z,26.77
2019-02-02T06:18:09.878Z,27.77
2019-02-02T06:20:36.384Z,24.17
2019-02-02T06:23:03.179Z,24.37
2019-02-02T06:25:29.674Z,27.47
2019-02-02T06:27:56.294Z,30.30
2019-02-02T06:30:24.100Z,26.70
2019-02-02T06:32:50.785Z,27.43
2019-02-02T06:35:18.193Z,31.37
2019-02-02T06:37:44.995Z,27.47
2019-02-02T06:40:16.176Z,26.57
2019-02-02T06:42:42.775Z,27.50
2019-02-02T06:45:26.098Z,28.80
2019-02-02T06:47:54.596Z,32.47
2019-02-02T06:50:21.230Z,29.13
2019-02-02T06:52:47.869Z,28.25
2019-02-02T06:55:16.386Z,28.60
2019-02-02T06:57:43.029Z,30.53
2019-02-02T07:00:18.291Z,28.50
2019-02-02T07:02:45.374Z,34.00
2019-02-02T07:05:11.989Z,32.93
2019-02-02T07:07:38.710Z,28.63
2019-02-02T07:10:10.679Z,29.63
2019-02-02T07:12:37.294Z,30.43
2019-02-02T07:15:09.320Z,29.57
2019-02-02T07:17:35.945Z,28.00
2019-02-02T07:20:07.127Z,33.77
2019-02-02T07:22:33.620Z,31.70
2019-02-02T07:25:00.011Z,32.20
2019-02-02T07:27:26.460Z,30.37
2019-02-02T07:29:52.857Z,30.97
2019-02-02T07:32:19.151Z,32.23
2019-02-02T07:34:45.785Z,37.43
2019-02-02T07:37:12.179Z,34.57
2019-02-02T07:39:38.591Z,27.87
2019-02-02T07:42:05.177Z,32.30
2019-02-02T07:44:31.718Z,31.63
2019-02-02T07:46:58.305Z,36.03
2019-02-02T07:49:24.734Z,31.43
2019-02-02T07:51:51.431Z,31.93
2019-02-02T07:54:17.966Z,31.73
2019-02-02T07:56:44.476Z,33.73
2019-02-02T07:59:10.995Z,32.17
2019-02-02T08:01:37.648Z,35.73
2019-02-02T08:04:04.925Z,31.43
2019-02-02T08:06:31.420Z,32.93
2019-02-02T08:08:57.925Z,31.37
2019-02-02T08:11:24.580Z,31.17
2019-02-02T08:13:51.018Z,29.47
2019-02-02T08:16:17.597Z,33.30
2019-02-02T08:18:44.359Z,36.27
2019-02-02T08:21:12.790Z,33.80
2019-02-02T08:23:39.344Z,32.53
2019-02-02T08:26:06.182Z,34.70
2019-02-02T08:28:32.685Z,70.07
2019-02-02T08:30:59.248Z,60.83
2019-02-02T08:33:25.769Z,40.33
2019-02-02T08:35:52.399Z,35.27
2019-02-02T08:38:18.915Z,35.87
2019-02-02T08:40:45.604Z,35.70
2019-02-02T08:43:12.153Z,37.00
2019-02-02T08:45:38.826Z,34.70
2019-02-02T08:48:05.555Z,33.00
2019-02-02T08:50:34.902Z,39.77
2019-02-02T08:53:01.538Z,39.10
2019-02-02T08:55:28.321Z,37.57
2019-02-02T08:57:54.965Z,36.23
2019-02-02T09:00:21.819Z,39.83
2019-02-02T09:02:49.373Z,40.70
2019-02-02T09:05:19.587Z,40.63
2019-02-02T09:07:46.196Z,37.90
2019-02-02T09:10:16.230Z,38.10
2019-02-02T09:12:42.890Z,39.80
2019-02-02T09:15:13.520Z,36.80
2019-02-02T09:17:41.195Z,34.80
2019-02-02T09:20:10.665Z,43.37
2019-02-02T09:22:37.270Z,68.77
2019-02-02T09:25:11.418Z,52.27
2019-02-02T09:27:38.062Z,38.70
2019-02-02T09:30:24.213Z,38.40
2019-02-02T09:32:50.903Z,39.23
2019-02-02T09:35:17.609Z,44.77
2019-02-02T09:37:44.194Z,38.57
2019-02-02T09:40:17.451Z,42.10
2019-02-02T09:42:44.351Z,44.93
2019-02-02T09:45:17.766Z,41.40
2019-02-02T09:47:44.379Z,44.27
2019-02-02T09:50:20.952Z,45.43
2019-02-02T09:52:47.949Z,49.43
2019-02-02T09:55:18.182Z,43.63
2019-02-02T09:57:44.767Z,176.10
2019-02-02T10:00:29.546Z,95.17
2019-02-02T10:02:56.535Z,46.93
2019-02-02T10:05:23.320Z,37.93
2019-02-02T10:07:50.169Z,38.77
2019-02-02T10:10:23.066Z,38.87
2019-02-02T10:12:49.625Z,38.97
2019-02-02T10:15:17.650Z,41.70
2019-02-02T10:17:44.284Z,38.93
2019-02-02T10:20:19.076Z,42.27
2019-02-02T10:22:45.875Z,42.13
2019-02-02T10:25:16.337Z,37.03
2019-02-02T10:27:42.895Z,42.70
2019-02-02T10:30:32.278Z,45.80
2019-02-02T10:32:59.315Z,42.23
2019-02-02T10:35:27.208Z,41.53
2019-02-02T10:37:54.115Z,42.83
2019-02-02T10:40:20.917Z,83.83
2019-02-02T10:42:47.611Z,84.23
2019-02-02T10:45:16.272Z,52.20
2019-02-02T10:47:43.179Z,45.97
2019-02-02T10:50:17.330Z,50.27
2019-02-02T10:52:44.624Z,47.93
2019-02-02T10:55:13.881Z,45.97
2019-02-02T10:57:40.463Z,42.93
2019-02-02T11:00:27.305Z,45.87
2019-02-02T11:02:53.877Z,46.97
2019-02-02T11:05:21.067Z,45.43
2019-02-02T11:07:47.902Z,46.73
2019-02-02T11:10:20.960Z,49.47
2019-02-02T11:12:47.651Z,44.73
2019-02-02T11:15:17.367Z,75.83
2019-02-02T11:17:44.427Z,51.90
2019-02-02T11:20:18.393Z,50.33
2019-02-02T11:22:45.267Z,47.37
2019-02-02T11:25:12.958Z,58.50
2019-02-02T11:27:39.635Z,82.77
2019-02-02T11:30:13.781Z,105.00
2019-02-02T11:32:40.806Z,74.13
2019-02-02T11:35:11.091Z,38.70
2019-02-02T11:37:37.751Z,32.93
2019-02-02T11:40:09.829Z,31.30
2019-02-02T11:42:36.281Z,35.07
2019-02-02T11:45:07.365Z,32.90
2019-02-02T11:47:33.852Z,34.67
2019-02-02T11:50:00.466Z,37.27
2019-02-02T11:52:26.980Z,40.70
2019-02-02T11:54:53.394Z,39.80
2019-02-02T11:57:20.081Z,41.77
2019-02-02T11:59:46.611Z,41.77
2019-02-02T12:02:14.503Z,46.50
2019-02-02T12:04:41.478Z,47.17
2019-02-02T12:07:08.100Z,51.10
2019-02-02T12:09:34.727Z,56.00
2019-02-02T12:12:01.216Z,86.20
2019-02-02T12:14:27.747Z,57.00
2019-02-02T12:16:54.378Z,52.27
2019-02-02T12:19:21.005Z,56.50
2019-02-02T12:21:47.518Z,55.03
2019-02-02T12:24:16.215Z,65.97
2019-02-02T12:26:42.682Z,56.20
2019-02-02T12:29:09.627Z,56.57
2019-02-02T12:31:36.137Z,60.20
2019-02-02T12:34:03.175Z,53.37
2019-02-02T12:36:29.702Z,60.63
2019-02-02T12:38:56.347Z,61.40
2019-02-02T12:41:22.954Z,62.80
2019-02-02T12:43:49.643Z,58.03
2019-02-02T12:46:16.175Z,61.13
2019-02-02T12:48:42.845Z,59.53
2019-02-02T12:51:09.498Z,62.93
2019-02-02T12:53:36.122Z,63.67
2019-02-02T12:56:03.058Z,57.93
2019-02-02T12:58:29.750Z,62.90
2019-02-02T13:00:56.420Z,61.17
2019-02-02T13:03:23.121Z,61.57
2019-02-02T13:05:49.772Z,59.80
2019-02-02T13:08:16.467Z,61.27
2019-02-02T13:10:43.181Z,60.43
2019-02-02T13:13:09.820Z,61.37
2019-02-02T13:15:36.453Z,60.60
2019-02-02T13:18:03.281Z,87.33
2019-02-02T13:20:29.928Z,73.90
2019-02-02T13:22:56.705Z,64.73
2019-02-02T13:25:23.349Z,62.00
2019-02-02T13:27:50.593Z,61.97
2019-02-02T13:30:30.495Z,66.27
2019-02-02T13:32:57.106Z,69.73
2019-02-02T13:35:25.013Z,63.17
2019-02-02T13:37:52.068Z,65.50
2019-02-02T13:40:21.175Z,57.87
2019-02-02T13:42:47.842Z,65.63
2019-02-02T13:45:17.684Z,61.37
2019-02-02T13:47:44.350Z,65.30
2019-02-02T13:50:14.054Z,63.47
2019-02-02T13:52:40.707Z,134.40
2019-02-02T13:55:08.554Z,98.27
2019-02-02T13:57:35.337Z,65.97
2019-02-02T14:00:05.512Z,63.73
2019-02-02T14:02:32.092Z,64.23
2019-02-02T14:04:58.578Z,65.50
2019-02-02T14:07:25.316Z,64.23
2019-02-02T14:09:52.091Z,64.33
2019-02-02T14:12:18.736Z,79.67
2019-02-02T14:14:45.442Z,98.07
2019-02-02T14:17:12.216Z,106.83
2019-02-02T14:19:38.876Z,74.97
2019-02-02T14:22:05.582Z,75.67
2019-02-02T14:24:32.227Z,111.53
2019-02-02T14:26:59.072Z,97.37
2019-02-02T14:29:25.618Z,67.77
2019-02-02T14:31:52.477Z,66.17
2019-02-02T14:34:19.271Z,69.90
2019-02-02T14:36:45.923Z,70.57
2019-02-02T14:39:12.711Z,66.67
2019-02-02T14:41:39.440Z,68.90
2019-02-02T14:44:06.157Z,67.90
2019-02-02T14:46:32.838Z,67.43
2019-02-02T14:48:59.631Z,64.93
2019-02-02T14:51:26.139Z,69.93
2019-02-02T14:53:52.993Z,62.70
2019-02-02T14:56:19.400Z,67.27
2019-02-02T14:58:46.180Z,65.67
2019-02-02T15:01:13.030Z,67.33
2019-02-02T15:03:39.831Z,67.00
2019-02-02T15:06:09.511Z,101.30
2019-02-02T15:08:34.987Z,117.53
2019-02-02T15:11:01.789Z,90.67
2019-02-02T15:13:28.478Z,71.73
2019-02-02T15:15:55.145Z,67.83
2019-02-02T15:18:21.965Z,67.90
2019-02-02T15:20:48.728Z,70.63
2019-02-02T15:23:15.377Z,63.97
2019-02-02T15:25:42.207Z,126.17
2019-02-02T15:28:08.765Z,140.03
2019-02-02T15:30:35.977Z,79.10
2019-02-02T15:33:04.099Z,70.07
2019-02-02T15:35:31.075Z,70.37
2019-02-02T15:37:57.761Z,68.83
2019-02-02T15:40:24.466Z,82.73
2019-02-02T15:42:51.174Z,107.77
2019-02-02T15:45:27.029Z,68.20
2019-02-02T15:47:53.651Z,68.03
2019-02-02T15:50:20.373Z,101.87
2019-02-02T15:52:47.009Z,99.27
2019-02-02T15:55:20.454Z,83.87
2019-02-02T15:57:47.090Z,69.93
2019-02-02T16:00:23.209Z,72.80
2019-02-02T16:02:49.883Z,66.07
2019-02-02T16:05:18.674Z,66.23
2019-02-02T16:07:45.334Z,67.77
2019-02-02T16:10:21.780Z,68.27
2019-02-02T16:12:48.690Z,69.57
2019-02-02T16:15:15.558Z,66.47
2019-02-02T16:17:42.435Z,72.23
2019-02-02T16:20:28.118Z,66.07
2019-02-02T16:22:54.602Z,65.43
2019-02-02T16:25:21.231Z,68.53
2019-02-02T16:27:48.193Z,91.13
2019-02-02T16:30:27.236Z,110.13
2019-02-02T16:32:54.190Z,173.13
2019-02-02T16:35:21.448Z,168.00
2019-02-02T16:37:48.298Z,89.33
2019-02-02T16:40:23.861Z,74.10
2019-02-02T16:42:53.487Z,76.27
2019-02-02T16:45:22.417Z,73.80
2019-02-02T16:47:49.282Z,76.57
2019-02-02T16:50:17.528Z,78.60
2019-02-02T16:52:44.689Z,72.13
2019-02-02T16:55:16.228Z,74.03
2019-02-02T16:57:43.001Z,75.50
2019-02-02T17:00:15.052Z,178.27
2019-02-02T17:02:41.727Z,145.83
2019-02-02T17:05:10.496Z,122.90
2019-02-02T17:07:37.077Z,97.90
2019-02-02T17:10:09.050Z,148.80
2019-02-02T17:12:35.828Z,101.13
2019-02-02T17:15:06.166Z,77.60
2019-02-02T17:17:32.692Z,79.33
2019-02-02T17:19:59.306Z,75.67
2019-02-02T17:22:25.915Z,73.63
2019-02-02T17:24:52.609Z,75.57
2019-02-02T17:27:19.400Z,75.43
2019-02-02T17:29:45.837Z,106.70
2019-02-02T17:32:12.638Z,152.57
2019-02-02T17:34:39.443Z,95.20
2019-02-02T17:37:06.107Z,76.73
2019-02-02T17:39:32.492Z,73.97
2019-02-02T17:41:59.120Z,76.17
2019-02-02T17:44:25.668Z,80.67
2019-02-02T17:46:52.018Z,76.50
2019-02-02T17:49:18.873Z,86.60
2019-02-02T17:51:45.494Z,79.47
2019-02-02T17:54:12.490Z,79.40
2019-02-02T17:56:39.034Z,204.97
2019-02-02T17:59:05.904Z,196.93
2019-02-02T18:01:32.735Z,162.47
2019-02-02T18:03:59.387Z,172.37
2019-02-02T18:06:26.189Z,106.93
2019-02-02T18:08:52.814Z,83.50
2019-02-02T18:11:19.365Z,87.90
2019-02-02T18:13:46.193Z,81.97
2019-02-02T18:16:13.028Z,85.30
2019-02-02T18:18:39.776Z,86.93
2019-02-02T18:21:06.454Z,88.30
2019-02-02T18:23:33.157Z,88.93
2019-02-02T18:26:00.016Z,91.63
2019-02-02T18:28:26.622Z,81.93
2019-02-02T18:30:53.350Z,145.13
2019-02-02T18:33:20.277Z,140.30
2019-02-02T18:35:47.284Z,98.40
2019-02-02T18:38:13.956Z,86.67
2019-02-02T18:40:40.827Z,92.03
2019-02-02T18:43:07.664Z,111.43
2019-02-02T18:45:34.471Z,168.83
2019-02-02T18:48:01.216Z,110.70
2019-02-02T18:50:27.931Z,95.80
2019-02-02T18:52:57.686Z,87.33
2019-02-02T18:55:39.031Z,94.13
2019-02-02T18:58:07.710Z,87.03
2019-02-02T19:00:34.333Z,84.70
2019-02-02T19:03:01.010Z,89.83
2019-02-02T19:05:29.252Z,240.67
2019-02-02T19:07:56.268Z,243.00
2019-02-02T19:10:34.012Z,133.53
2019-02-02T19:13:00.967Z,99.73
2019-02-02T19:15:27.667Z,92.90
2019-02-02T19:17:54.410Z,91.90
2019-02-02T19:20:21.959Z,94.37
2019-02-02T19:22:49.029Z,96.53
2019-02-02T19:25:15.919Z,88.30
2019-02-02T19:27:42.677Z,100.67
2019-02-02T19:30:19.489Z,126.60
2019-02-02T19:32:46.561Z,121.30
2019-02-02T19:35:16.251Z,136.63
2019-02-02T19:37:41.859Z,100.73
2019-02-02T19:40:14.643Z,98.73
2019-02-02T19:42:41.413Z,100.80
2019-02-02T19:45:15.823Z,97.97
2019-02-02T19:47:42.811Z,104.63
2019-02-02T19:50:26.299Z,134.13
2019-02-02T19:52:52.948Z,135.10
2019-02-02T19:55:19.843Z,110.80
2019-02-02T19:57:46.781Z,116.00
2019-02-02T20:00:26.822Z,133.47
2019-02-02T20:02:53.968Z,111.60
2019-02-02T20:05:28.119Z,106.80
2019-02-02T20:07:49.228Z,107.77
2019-02-02T20:10:17.178Z,108.70
2019-02-02T20:12:44.021Z,107.77
2019-02-02T20:15:18.268Z,105.80
2019-02-02T20:17:45.849Z,125.47
2019-02-02T20:20:18.172Z,139.97
2019-02-02T20:22:44.939Z,107.70
2019-02-02T20:25:13.529Z,114.57
2019-02-02T20:27:40.186Z,109.50
2019-02-02T20:30:20.099Z,109.77
2019-02-02T20:32:48.715Z,113.67
2019-02-02T20:35:15.565Z,111.13
2019-02-02T20:37:42.332Z,103.80
2019-02-02T20:40:13.281Z,101.33
2019-02-02T20:42:40.220Z,106.47
2019-02-02T20:45:11.911Z,130.43
2019-02-02T20:47:38.779Z,156.47
2019-02-02T20:50:13.190Z,125.77
2019-02-02T20:52:46.928Z,160.33
2019-02-02T20:55:12.597Z,136.30
2019-02-02T20:57:39.381Z,103.17
2019-02-02T21:00:17.312Z,92.50
2019-02-02T21:02:43.889Z,90.97
2019-02-02T21:05:10.686Z,87.87
2019-02-02T21:07:37.373Z,90.93
2019-02-02T21:10:09.387Z,124.13
2019-02-02T21:12:36.492Z,112.37
2019-02-02T21:15:08.182Z,91.47
2019-02-02T21:17:35.000Z,94.07
2019-02-02T21:20:01.658Z,88.50
2019-02-02T21:22:28.504Z,93.00
2019-02-02T21:24:55.070Z,87.90
2019-02-02T21:27:22.005Z,83.33
2019-02-02T21:29:50.462Z,78.57
2019-02-02T21:32:16.974Z,88.37
2019-02-02T21:34:43.902Z,83.80
2019-02-02T21:37:10.343Z,89.73
2019-02-02T21:39:36.834Z,88.27
2019-02-02T21:42:03.744Z,331.37
2019-02-02T21:44:30.557Z,234.83
2019-02-02T21:46:57.324Z,141.77
2019-02-02T21:49:24.149Z,103.33
2019-02-02T21:51:50.665Z,91.43
2019-02-02T21:54:17.320Z,84.73
2019-02-02T21:56:44.122Z,87.73
2019-02-02T21:59:10.802Z,82.37
2019-02-02T22:01:37.526Z,88.30
2019-02-02T22:04:04.889Z,88.93
2019-02-02T22:06:31.421Z,86.93
2019-02-02T22:08:58.254Z,84.93
2019-02-02T22:11:25.533Z,273.20
2019-02-02T22:13:52.213Z,185.10
2019-02-02T22:16:19.286Z,90.93
2019-02-02T22:18:45.934Z,89.00
2019-02-02T22:21:12.582Z,86.00
2019-02-02T22:23:39.237Z,86.07
2019-02-02T22:26:05.978Z,88.13
2019-02-02T22:28:32.569Z,93.57
2019-02-02T22:30:59.214Z,93.53
2019-02-02T22:33:25.838Z,90.90
2019-02-02T22:35:52.592Z,98.10
2019-02-02T22:38:19.201Z,129.37
2019-02-02T22:40:45.748Z,155.57
2019-02-02T22:43:12.423Z,101.40
2019-02-02T22:45:39.024Z,94.53
2019-02-02T22:48:05.927Z,100.63
2019-02-02T22:50:32.453Z,132.57
2019-02-02T22:52:58.872Z,151.53
2019-02-02T22:55:25.414Z,159.13
2019-02-02T22:57:53.160Z,110.57
2019-02-02T23:00:42.638Z,116.80
2019-02-02T23:03:13.261Z,110.17
2019-02-02T23:06:06.125Z,107.50
2019-02-02T23:08:44.750Z,112.63
2019-02-02T23:11:36.634Z,102.80
2019-02-02T23:14:48.176Z,110.00
2019-02-02T23:17:14.956Z,106.33
2019-02-02T23:19:41.549Z,105.17
2019-02-02T23:22:08.324Z,114.37
2019-02-02T23:24:35.032Z,121.90
2019-02-02T23:27:01.683Z,120.00
2019-02-02T23:29:28.173Z,113.37
2019-02-02T23:31:54.758Z,128.00
2019-02-02T23:34:21.272Z,117.13
2019-02-02T23:36:53.593Z,118.70
2019-02-02T23:39:16.153Z,112.40
2019-02-02T23:41:42.688Z,116.27
2019-02-02T23:44:09.320Z,111.07
2019-02-02T23:46:36.048Z,130.07
2019-02-02T23:49:02.778Z,128.27
2019-02-02T23:51:29.468Z,116.87
2019-02-02T23:53:56.258Z,125.40
2019-02-02T23:56:23.173Z,122.27
2019-02-02T23:58:49.729Z,128.50
